sensor_id;sensor_type;location;lat;lon;timestamp;temperature;humidity
24164;DHT22;12319;49.204;8.116;2022-08-19T00:01:50;22.90;65.00
24164;DHT22;12319;49.204;8.116;2022-08-19T00:04:17;23.00;65.10
24164;DHT22;12319;49.204;8.116;2022-08-19T00:06:47;23.00;65.10
24164;DHT22;12319;49.204;8.116;2022-08-19T00:09:14;23.00;65.10
24164;DHT22;12319;49.204;8.116;2022-08-19T00:11:41;23.30;65.40
24164;DHT22;12319;49.204;8.116;2022-08-19T00:14:08;23.30;65.40
24164;DHT22;12319;49.204;8.116;2022-08-19T00:16:36;23.50;65.60
24164;DHT22;12319;49.204;8.116;2022-08-19T00:19:03;23.00;65.10
24164;DHT22;12319;49.204;8.116;2022-08-19T00:21:28;23.30;65.40
24164;DHT22;12319;49.204;8.116;2022-08-19T00:23:55;23.00;65.10
24164;DHT22;12319;49.204;8.116;2022-08-19T00:26:24;23.00;65.10
24164;DHT22;12319;49.204;8.116;2022-08-19T00:28:50;23.10;65.20
24164;DHT22;12319;49.204;8.116;2022-08-19T00:31:16;23.00;65.10
24164;DHT22;12319;49.204;8.116;2022-08-19T00:33:41;23.00;65.20
24164;DHT22;12319;49.204;8.116;2022-08-19T00:36:09;23.00;65.10
24164;DHT22;12319;49.204;8.116;2022-08-19T00:38:36;22.90;65.00
24164;DHT22;12319;49.204;8.116;2022-08-19T00:41:02;23.00;65.10
24164;DHT22;12319;49.204;8.116;2022-08-19T00:43:27;23.10;65.30
24164;DHT22;12319;49.204;8.116;2022-08-19T00:45:54;23.00;65.10
24164;DHT22;12319;49.204;8.116;2022-08-19T00:48:20;22.90;65.00
24164;DHT22;12319;49.204;8.116;2022-08-19T00:50:48;23.10;65.10
24164;DHT22;12319;49.204;8.116;2022-08-19T00:53:16;23.00;65.00
24164;DHT22;12319;49.204;8.116;2022-08-19T00:55:49;22.90;64.90
24164;DHT22;12319;49.204;8.116;2022-08-19T00:58:17;23.00;65.00
24164;DHT22;12319;49.204;8.116;2022-08-19T01:00:45;23.00;64.90
24164;DHT22;12319;49.204;8.116;2022-08-19T01:03:14;22.90;64.80
24164;DHT22;12319;49.204;8.116;2022-08-19T01:05:42;23.20;65.00
24164;DHT22;12319;49.204;8.116;2022-08-19T01:08:09;22.90;64.80
24164;DHT22;12319;49.204;8.116;2022-08-19T01:10:41;22.90;64.70
24164;DHT22;12319;49.204;8.116;2022-08-19T01:13:08;22.90;64.70
24164;DHT22;12319;49.204;8.116;2022-08-19T01:15:48;22.90;64.60
24164;DHT22;12319;49.204;8.116;2022-08-19T01:18:17;23.00;64.70
24164;DHT22;12319;49.204;8.116;2022-08-19T01:20:43;22.90;64.70
24164;DHT22;12319;49.204;8.116;2022-08-19T01:23:09;22.90;64.60
24164;DHT22;12319;49.204;8.116;2022-08-19T01:25:47;22.90;64.70
24164;DHT22;12319;49.204;8.116;2022-08-19T01:28:24;22.80;64.70
24164;DHT22;12319;49.204;8.116;2022-08-19T01:30:52;22.80;64.70
24164;DHT22;12319;49.204;8.116;2022-08-19T01:33:18;22.80;64.60
24164;DHT22;12319;49.204;8.116;2022-08-19T01:35:45;22.80;64.60
24164;DHT22;12319;49.204;8.116;2022-08-19T01:38:21;22.90;64.80
24164;DHT22;12319;49.204;8.116;2022-08-19T01:40:47;22.80;64.80
24164;DHT22;12319;49.204;8.116;2022-08-19T01:43:12;22.70;64.60
24164;DHT22;12319;49.204;8.116;2022-08-19T01:45:38;22.90;64.80
24164;DHT22;12319;49.204;8.116;2022-08-19T01:48:08;22.80;64.70
24164;DHT22;12319;49.204;8.116;2022-08-19T01:50:34;22.80;64.70
24164;DHT22;12319;49.204;8.116;2022-08-19T01:53:02;22.80;64.80
24164;DHT22;12319;49.204;8.116;2022-08-19T01:55:29;22.80;64.80
24164;DHT22;12319;49.204;8.116;2022-08-19T01:57:58;22.80;64.90
24164;DHT22;12319;49.204;8.116;2022-08-19T02:00:26;22.90;65.20
24164;DHT22;12319;49.204;8.116;2022-08-19T02:02:53;22.80;65.10
24164;DHT22;12319;49.204;8.116;2022-08-19T02:05:19;22.80;65.20
24164;DHT22;12319;49.204;8.116;2022-08-19T02:07:47;22.60;65.10
24164;DHT22;12319;49.204;8.116;2022-08-19T02:10:17;22.70;65.30
24164;DHT22;12319;49.204;8.116;2022-08-19T02:12:43;22.80;65.50
24164;DHT22;12319;49.204;8.116;2022-08-19T02:15:09;22.70;65.40
24164;DHT22;12319;49.204;8.116;2022-08-19T02:17:35;22.60;65.40
24164;DHT22;12319;49.204;8.116;2022-08-19T02:20:01;22.80;65.60
24164;DHT22;12319;49.204;8.116;2022-08-19T02:22:26;22.80;65.70
24164;DHT22;12319;49.204;8.116;2022-08-19T02:24:53;22.60;65.50
24164;DHT22;12319;49.204;8.116;2022-08-19T02:27:20;22.60;65.50
24164;DHT22;12319;49.204;8.116;2022-08-19T02:29:47;22.80;65.70
24164;DHT22;12319;49.204;8.116;2022-08-19T02:32:13;22.50;65.50
24164;DHT22;12319;49.204;8.116;2022-08-19T02:34:39;23.30;66.30
24164;DHT22;12319;49.204;8.116;2022-08-19T02:37:05;22.60;65.70
24164;DHT22;12319;49.204;8.116;2022-08-19T02:39:30;22.50;65.80
24164;DHT22;12319;49.204;8.116;2022-08-19T02:41:56;22.80;66.10
24164;DHT22;12319;49.204;8.116;2022-08-19T02:44:23;22.40;65.80
24164;DHT22;12319;49.204;8.116;2022-08-19T02:46:48;22.50;66.00
24164;DHT22;12319;49.204;8.116;2022-08-19T02:49:17;22.50;66.10
24164;DHT22;12319;49.204;8.116;2022-08-19T02:51:45;22.50;66.00
24164;DHT22;12319;49.204;8.116;2022-08-19T02:54:11;22.50;66.10
24164;DHT22;12319;49.204;8.116;2022-08-19T02:56:39;22.70;66.30
24164;DHT22;12319;49.204;8.116;2022-08-19T02:59:05;22.50;66.10
24164;DHT22;12319;49.204;8.116;2022-08-19T03:01:34;22.50;66.10
24164;DHT22;12319;49.204;8.116;2022-08-19T03:04:02;22.60;66.20
24164;DHT22;12319;49.204;8.116;2022-08-19T03:06:28;22.50;66.20
24164;DHT22;12319;49.204;8.116;2022-08-19T03:08:55;22.50;66.20
24164;DHT22;12319;49.204;8.116;2022-08-19T03:11:23;22.70;66.50
24164;DHT22;12319;49.204;8.116;2022-08-19T03:13:49;22.50;67.00
24164;DHT22;12319;49.204;8.116;2022-08-19T03:16:19;22.80;66.70
24164;DHT22;12319;49.204;8.116;2022-08-19T03:18:45;22.50;66.40
24164;DHT22;12319;49.204;8.116;2022-08-19T03:21:25;22.30;66.20
24164;DHT22;12319;49.204;8.116;2022-08-19T03:23:54;22.40;66.40
24164;DHT22;12319;49.204;8.116;2022-08-19T03:26:19;22.40;66.40
24164;DHT22;12319;49.204;8.116;2022-08-19T03:28:45;22.40;66.40
24164;DHT22;12319;49.204;8.116;2022-08-19T03:31:18;22.30;66.40
24164;DHT22;12319;49.204;8.116;2022-08-19T03:33:44;22.50;66.80
24164;DHT22;12319;49.204;8.116;2022-08-19T03:36:14;22.30;66.60
24164;DHT22;12319;49.204;8.116;2022-08-19T03:38:42;22.90;67.30
24164;DHT22;12319;49.204;8.116;2022-08-19T03:41:13;22.30;66.70
24164;DHT22;12319;49.204;8.116;2022-08-19T03:43:41;22.30;66.70
24164;DHT22;12319;49.204;8.116;2022-08-19T03:46:10;22.20;66.50
24164;DHT22;12319;49.204;8.116;2022-08-19T03:48:37;22.20;66.40
24164;DHT22;12319;49.204;8.116;2022-08-19T03:51:04;22.10;66.30
24164;DHT22;12319;49.204;8.116;2022-08-19T03:53:31;22.10;66.30
24164;DHT22;12319;49.204;8.116;2022-08-19T03:55:57;22.20;66.40
24164;DHT22;12319;49.204;8.116;2022-08-19T03:58:26;22.90;67.00
24164;DHT22;12319;49.204;8.116;2022-08-19T04:00:55;22.10;66.30
24164;DHT22;12319;49.204;8.116;2022-08-19T04:03:21;22.10;66.20
24164;DHT22;12319;49.204;8.116;2022-08-19T04:05:46;22.10;66.30
24164;DHT22;12319;49.204;8.116;2022-08-19T04:08:13;22.10;66.20
24164;DHT22;12319;49.204;8.116;2022-08-19T04:10:39;22.20;66.20
24164;DHT22;12319;49.204;8.116;2022-08-19T04:13:05;22.20;66.20
24164;DHT22;12319;49.204;8.116;2022-08-19T04:15:32;22.20;66.20
24164;DHT22;12319;49.204;8.116;2022-08-19T04:18:04;22.20;66.20
24164;DHT22;12319;49.204;8.116;2022-08-19T04:20:38;22.20;66.10
24164;DHT22;12319;49.204;8.116;2022-08-19T04:23:04;22.00;65.90
24164;DHT22;12319;49.204;8.116;2022-08-19T04:25:42;22.20;66.10
24164;DHT22;12319;49.204;8.116;2022-08-19T04:28:10;22.20;66.10
24164;DHT22;12319;49.204;8.116;2022-08-19T04:30:44;22.20;66.10
24164;DHT22;12319;49.204;8.116;2022-08-19T04:33:13;22.20;66.10
24164;DHT22;12319;49.204;8.116;2022-08-19T04:35:44;22.20;66.10
24164;DHT22;12319;49.204;8.116;2022-08-19T04:38:11;22.20;66.10
24164;DHT22;12319;49.204;8.116;2022-08-19T04:40:45;22.20;66.10
24164;DHT22;12319;49.204;8.116;2022-08-19T04:43:30;22.20;66.20
24164;DHT22;12319;49.204;8.116;2022-08-19T04:45:56;22.20;66.10
24164;DHT22;12319;49.204;8.116;2022-08-19T04:48:22;22.20;66.10
24164;DHT22;12319;49.204;8.116;2022-08-19T04:50:56;22.20;66.10
24164;DHT22;12319;49.204;8.116;2022-08-19T04:53:29;22.20;66.10
24164;DHT22;12319;49.204;8.116;2022-08-19T04:55:56;22.20;66.10
24164;DHT22;12319;49.204;8.116;2022-08-19T04:58:24;22.20;66.10
24164;DHT22;12319;49.204;8.116;2022-08-19T05:00:50;22.80;66.60
24164;DHT22;12319;49.204;8.116;2022-08-19T05:03:16;22.40;66.20
24164;DHT22;12319;49.204;8.116;2022-08-19T05:05:44;22.30;66.00
24164;DHT22;12319;49.204;8.116;2022-08-19T05:08:10;22.30;66.00
24164;DHT22;12319;49.204;8.116;2022-08-19T05:10:37;22.40;66.00
24164;DHT22;12319;49.204;8.116;2022-08-19T05:13:04;22.40;65.90
24164;DHT22;12319;49.204;8.116;2022-08-19T05:15:30;22.50;65.90
24164;DHT22;12319;49.204;8.116;2022-08-19T05:17:55;22.40;65.80
24164;DHT22;12319;49.204;8.116;2022-08-19T05:20:40;23.40;66.70
24164;DHT22;12319;49.204;8.116;2022-08-19T05:23:24;22.60;65.80
24164;DHT22;12319;49.204;8.116;2022-08-19T05:25:50;22.60;65.60
24164;DHT22;12319;49.204;8.116;2022-08-19T05:28:16;22.70;65.60
24164;DHT22;12319;49.204;8.116;2022-08-19T05:30:41;22.70;65.60
24164;DHT22;12319;49.204;8.116;2022-08-19T05:33:10;22.80;65.70
24164;DHT22;12319;49.204;8.116;2022-08-19T05:35:38;22.80;65.60
24164;DHT22;12319;49.204;8.116;2022-08-19T05:38:04;22.90;65.60
24164;DHT22;12319;49.204;8.116;2022-08-19T05:40:30;23.20;65.70
24164;DHT22;12319;49.204;8.116;2022-08-19T05:42:56;22.90;65.40
24164;DHT22;12319;49.204;8.116;2022-08-19T05:45:21;22.90;65.40
24164;DHT22;12319;49.204;8.116;2022-08-19T05:47:47;22.90;65.30
24164;DHT22;12319;49.204;8.116;2022-08-19T05:50:13;22.90;65.30
24164;DHT22;12319;49.204;8.116;2022-08-19T05:52:39;23.00;65.40
24164;DHT22;12319;49.204;8.116;2022-08-19T05:55:05;23.20;65.40
24164;DHT22;12319;49.204;8.116;2022-08-19T05:57:31;23.10;65.30
24164;DHT22;12319;49.204;8.116;2022-08-19T05:59:57;24.00;66.70
24164;DHT22;12319;49.204;8.116;2022-08-19T06:02:26;23.10;65.10
24164;DHT22;12319;49.204;8.116;2022-08-19T06:04:52;23.20;65.10
24164;DHT22;12319;49.204;8.116;2022-08-19T06:07:17;23.50;65.30
24164;DHT22;12319;49.204;8.116;2022-08-19T06:09:44;23.20;65.00
24164;DHT22;12319;49.204;8.116;2022-08-19T06:12:10;23.30;65.00
24164;DHT22;12319;49.204;8.116;2022-08-19T06:14:36;23.40;65.00
24164;DHT22;12319;49.204;8.116;2022-08-19T06:17:02;23.30;64.90
24164;DHT22;12319;49.204;8.116;2022-08-19T06:19:29;23.40;64.90
24164;DHT22;12319;49.204;8.116;2022-08-19T06:21:57;23.60;65.00
24164;DHT22;12319;49.204;8.116;2022-08-19T06:24:26;23.50;64.80
24164;DHT22;12319;49.204;8.116;2022-08-19T06:26:53;23.60;64.80
24164;DHT22;12319;49.204;8.116;2022-08-19T06:29:23;23.70;64.90
24164;DHT22;12319;49.204;8.116;2022-08-19T06:31:51;23.70;64.60
24164;DHT22;12319;49.204;8.116;2022-08-19T06:34:18;24.20;65.00
24164;DHT22;12319;49.204;8.116;2022-08-19T06:36:49;23.80;64.50
24164;DHT22;12319;49.204;8.116;2022-08-19T06:39:28;23.80;64.40
24164;DHT22;12319;49.204;8.116;2022-08-19T06:41:58;24.00;64.40
24164;DHT22;12319;49.204;8.116;2022-08-19T06:44:26;23.90;64.10
24164;DHT22;12319;49.204;8.116;2022-08-19T06:46:53;24.00;63.90
24164;DHT22;12319;49.204;8.116;2022-08-19T06:49:19;24.00;63.90
24164;DHT22;12319;49.204;8.116;2022-08-19T06:51:46;24.10;63.90
24164;DHT22;12319;49.204;8.116;2022-08-19T06:54:14;24.10;63.90
24164;DHT22;12319;49.204;8.116;2022-08-19T06:56:40;24.20;63.80
24164;DHT22;12319;49.204;8.116;2022-08-19T06:59:08;24.20;63.60
24164;DHT22;12319;49.204;8.116;2022-08-19T07:01:39;24.20;63.40
24164;DHT22;12319;49.204;8.116;2022-08-19T07:04:09;24.20;63.40
24164;DHT22;12319;49.204;8.116;2022-08-19T07:06:36;24.30;63.40
24164;DHT22;12319;49.204;8.116;2022-08-19T07:09:04;24.40;63.40
24164;DHT22;12319;49.204;8.116;2022-08-19T07:11:29;24.50;63.30
24164;DHT22;12319;49.204;8.116;2022-08-19T07:13:56;24.50;63.10
24164;DHT22;12319;49.204;8.116;2022-08-19T07:16:21;24.70;63.20
24164;DHT22;12319;49.204;8.116;2022-08-19T07:18:51;24.70;63.00
24164;DHT22;12319;49.204;8.116;2022-08-19T07:21:27;24.60;62.90
24164;DHT22;12319;49.204;8.116;2022-08-19T07:23:58;24.70;62.60
24164;DHT22;12319;49.204;8.116;2022-08-19T07:26:30;24.70;62.60
24164;DHT22;12319;49.204;8.116;2022-08-19T07:28:56;24.80;62.70
24164;DHT22;12319;49.204;8.116;2022-08-19T07:31:25;24.90;62.80
24164;DHT22;12319;49.204;8.116;2022-08-19T07:33:52;25.00;62.60
24164;DHT22;12319;49.204;8.116;2022-08-19T07:36:23;25.10;62.40
24164;DHT22;12319;49.204;8.116;2022-08-19T07:38:50;25.70;62.60
24164;DHT22;12319;49.204;8.116;2022-08-19T07:41:19;25.30;62.00
24164;DHT22;12319;49.204;8.116;2022-08-19T07:43:45;25.50;61.70
24164;DHT22;12319;49.204;8.116;2022-08-19T07:46:11;25.80;61.70
24164;DHT22;12319;49.204;8.116;2022-08-19T07:48:40;25.80;61.70
24164;DHT22;12319;49.204;8.116;2022-08-19T07:51:07;25.90;61.40
24164;DHT22;12319;49.204;8.116;2022-08-19T07:53:34;26.10;61.70
24164;DHT22;12319;49.204;8.116;2022-08-19T07:56:02;26.30;60.90
24164;DHT22;12319;49.204;8.116;2022-08-19T07:58:31;26.40;60.60
24164;DHT22;12319;49.204;8.116;2022-08-19T08:00:57;26.60;60.20
24164;DHT22;12319;49.204;8.116;2022-08-19T08:03:24;26.70;60.00
24164;DHT22;12319;49.204;8.116;2022-08-19T08:06:10;26.70;59.70
24164;DHT22;12319;49.204;8.116;2022-08-19T08:08:54;26.80;59.20
24164;DHT22;12319;49.204;8.116;2022-08-19T08:11:41;26.90;58.90
24164;DHT22;12319;49.204;8.116;2022-08-19T08:14:08;27.00;58.70
24164;DHT22;12319;49.204;8.116;2022-08-19T08:16:36;27.10;58.50
24164;DHT22;12319;49.204;8.116;2022-08-19T08:19:04;27.20;58.20
24164;DHT22;12319;49.204;8.116;2022-08-19T08:21:31;27.30;58.00
24164;DHT22;12319;49.204;8.116;2022-08-19T08:23:57;27.50;58.00
24164;DHT22;12319;49.204;8.116;2022-08-19T08:26:23;27.60;57.70
24164;DHT22;12319;49.204;8.116;2022-08-19T08:28:48;27.90;57.40
24164;DHT22;12319;49.204;8.116;2022-08-19T08:31:14;28.10;57.00
24164;DHT22;12319;49.204;8.116;2022-08-19T08:33:40;28.30;56.80
24164;DHT22;12319;49.204;8.116;2022-08-19T08:36:08;28.40;56.10
24164;DHT22;12319;49.204;8.116;2022-08-19T08:38:34;28.50;56.00
24164;DHT22;12319;49.204;8.116;2022-08-19T08:41:07;28.60;56.00
24164;DHT22;12319;49.204;8.116;2022-08-19T08:43:39;28.70;55.40
24164;DHT22;12319;49.204;8.116;2022-08-19T08:46:12;29.00;54.60
24164;DHT22;12319;49.204;8.116;2022-08-19T08:48:56;29.70;54.50
24164;DHT22;12319;49.204;8.116;2022-08-19T08:51:32;29.90;52.60
24164;DHT22;12319;49.204;8.116;2022-08-19T08:53:59;29.80;53.00
24164;DHT22;12319;49.204;8.116;2022-08-19T08:56:25;29.60;53.50
24164;DHT22;12319;49.204;8.116;2022-08-19T08:59:20;29.30;53.20
24164;DHT22;12319;49.204;8.116;2022-08-19T09:01:47;29.10;52.50
24164;DHT22;12319;49.204;8.116;2022-08-19T09:04:13;29.10;53.40
24164;DHT22;12319;49.204;8.116;2022-08-19T09:07:10;29.00;53.50
24164;DHT22;12319;49.204;8.116;2022-08-19T09:09:42;29.00;52.70
24164;DHT22;12319;49.204;8.116;2022-08-19T09:12:57;28.90;53.30
24164;DHT22;12319;49.204;8.116;2022-08-19T09:15:07;29.00;53.50
24164;DHT22;12319;49.204;8.116;2022-08-19T09:17:34;29.10;53.50
24164;DHT22;12319;49.204;8.116;2022-08-19T09:22:34;29.50;52.80
24164;DHT22;12319;49.204;8.116;2022-08-19T09:25:00;29.90;52.70
24164;DHT22;12319;49.204;8.116;2022-08-19T09:27:27;30.20;52.60
24164;DHT22;12319;49.204;8.116;2022-08-19T09:29:53;30.40;52.10
24164;DHT22;12319;49.204;8.116;2022-08-19T09:32:20;30.40;51.70
24164;DHT22;12319;49.204;8.116;2022-08-19T09:34:46;30.40;51.60
24164;DHT22;12319;49.204;8.116;2022-08-19T09:37:11;30.40;51.40
24164;DHT22;12319;49.204;8.116;2022-08-19T09:39:38;30.30;51.00
24164;DHT22;12319;49.204;8.116;2022-08-19T09:42:04;30.20;50.70
24164;DHT22;12319;49.204;8.116;2022-08-19T09:44:34;30.10;51.00
24164;DHT22;12319;49.204;8.116;2022-08-19T09:46:59;30.10;51.10
24164;DHT22;12319;49.204;8.116;2022-08-19T09:49:25;30.20;50.80
24164;DHT22;12319;49.204;8.116;2022-08-19T09:51:51;30.30;50.60
24164;DHT22;12319;49.204;8.116;2022-08-19T09:54:19;30.40;50.50
24164;DHT22;12319;49.204;8.116;2022-08-19T09:56:45;30.30;50.40
24164;DHT22;12319;49.204;8.116;2022-08-19T09:59:11;30.20;50.10
24164;DHT22;12319;49.204;8.116;2022-08-19T10:01:37;30.00;50.10
24164;DHT22;12319;49.204;8.116;2022-08-19T10:04:03;29.80;50.50
24164;DHT22;12319;49.204;8.116;2022-08-19T10:06:37;29.50;50.60
24164;DHT22;12319;49.204;8.116;2022-08-19T10:09:06;29.30;50.60
24164;DHT22;12319;49.204;8.116;2022-08-19T10:11:33;29.20;50.90
24164;DHT22;12319;49.204;8.116;2022-08-19T10:14:01;29.20;50.90
24164;DHT22;12319;49.204;8.116;2022-08-19T10:16:27;29.30;51.00
24164;DHT22;12319;49.204;8.116;2022-08-19T10:18:53;29.50;50.80
24164;DHT22;12319;49.204;8.116;2022-08-19T10:21:23;29.80;50.70
24164;DHT22;12319;49.204;8.116;2022-08-19T10:23:51;30.00;50.50
24164;DHT22;12319;49.204;8.116;2022-08-19T10:26:20;30.40;50.50
24164;DHT22;12319;49.204;8.116;2022-08-19T10:28:46;30.60;49.90
24164;DHT22;12319;49.204;8.116;2022-08-19T10:31:18;30.70;50.00
24164;DHT22;12319;49.204;8.116;2022-08-19T10:33:46;30.70;48.80
24164;DHT22;12319;49.204;8.116;2022-08-19T10:36:15;30.80;48.90
24164;DHT22;12319;49.204;8.116;2022-08-19T10:38:43;30.80;48.50
24164;DHT22;12319;49.204;8.116;2022-08-19T10:41:13;30.90;48.30
24164;DHT22;12319;49.204;8.116;2022-08-19T10:43:40;30.80;48.40
24164;DHT22;12319;49.204;8.116;2022-08-19T10:46:10;30.70;48.10
24164;DHT22;12319;49.204;8.116;2022-08-19T10:48:36;30.70;48.00
24164;DHT22;12319;49.204;8.116;2022-08-19T10:51:02;30.70;48.10
24164;DHT22;12319;49.204;8.116;2022-08-19T10:53:47;30.50;48.00
24164;DHT22;12319;49.204;8.116;2022-08-19T10:56:13;30.40;48.20
24164;DHT22;12319;49.204;8.116;2022-08-19T10:58:57;30.20;48.10
24164;DHT22;12319;49.204;8.116;2022-08-19T11:01:24;30.00;48.10
24164;DHT22;12319;49.204;8.116;2022-08-19T11:03:50;29.80;48.10
24164;DHT22;12319;49.204;8.116;2022-08-19T11:06:16;29.70;48.10
24164;DHT22;12319;49.204;8.116;2022-08-19T11:08:41;29.50;48.00
24164;DHT22;12319;49.204;8.116;2022-08-19T11:11:10;29.30;48.00
24164;DHT22;12319;49.204;8.116;2022-08-19T11:13:39;29.20;48.10
24164;DHT22;12319;49.204;8.116;2022-08-19T11:16:13;29.20;48.00
24164;DHT22;12319;49.204;8.116;2022-08-19T11:18:42;29.40;48.00
24164;DHT22;12319;49.204;8.116;2022-08-19T11:23:47;29.40;48.10
24164;DHT22;12319;49.204;8.116;2022-08-19T11:26:14;29.50;48.20
24164;DHT22;12319;49.204;8.116;2022-08-19T11:28:41;29.50;47.80
24164;DHT22;12319;49.204;8.116;2022-08-19T11:31:15;29.70;47.40
24164;DHT22;12319;49.204;8.116;2022-08-19T11:33:41;29.80;46.80
24164;DHT22;12319;49.204;8.116;2022-08-19T11:36:08;29.80;46.90
24164;DHT22;12319;49.204;8.116;2022-08-19T11:38:35;30.00;46.60
24164;DHT22;12319;49.204;8.116;2022-08-19T11:41:04;30.10;46.40
24164;DHT22;12319;49.204;8.116;2022-08-19T11:43:30;30.10;46.60
24164;DHT22;12319;49.204;8.116;2022-08-19T11:45:56;30.10;46.40
24164;DHT22;12319;49.204;8.116;2022-08-19T11:48:23;30.20;45.80
24164;DHT22;12319;49.204;8.116;2022-08-19T11:50:50;30.30;45.90
24164;DHT22;12319;49.204;8.116;2022-08-19T11:53:19;30.40;46.00
24164;DHT22;12319;49.204;8.116;2022-08-19T11:55:47;30.50;45.00
24164;DHT22;12319;49.204;8.116;2022-08-19T11:58:14;30.40;44.90
24164;DHT22;12319;49.204;8.116;2022-08-19T12:00:41;30.60;44.70
24164;DHT22;12319;49.204;8.116;2022-08-19T12:03:07;30.70;44.10
24164;DHT22;12319;49.204;8.116;2022-08-19T12:05:35;30.80;44.10
24164;DHT22;12319;49.204;8.116;2022-08-19T12:08:01;31.00;44.40
24164;DHT22;12319;49.204;8.116;2022-08-19T12:10:27;31.30;43.70
24164;DHT22;12319;49.204;8.116;2022-08-19T12:12:52;31.40;44.40
24164;DHT22;12319;49.204;8.116;2022-08-19T12:15:18;31.70;43.00
24164;DHT22;12319;49.204;8.116;2022-08-19T12:17:44;31.90;42.50
24164;DHT22;12319;49.204;8.116;2022-08-19T12:20:10;32.10;42.10
24164;DHT22;12319;49.204;8.116;2022-08-19T12:22:37;32.00;41.60
24164;DHT22;12319;49.204;8.116;2022-08-19T12:25:04;32.10;41.60
24164;DHT22;12319;49.204;8.116;2022-08-19T12:27:31;32.10;41.70
24164;DHT22;12319;49.204;8.116;2022-08-19T12:29:56;32.40;41.80
24164;DHT22;12319;49.204;8.116;2022-08-19T12:32:22;32.50;41.60
24164;DHT22;12319;49.204;8.116;2022-08-19T12:34:50;32.80;41.30
24164;DHT22;12319;49.204;8.116;2022-08-19T12:37:15;33.00;40.80
24164;DHT22;12319;49.204;8.116;2022-08-19T12:39:42;33.00;40.30
24164;DHT22;12319;49.204;8.116;2022-08-19T12:42:10;33.20;40.30
24164;DHT22;12319;49.204;8.116;2022-08-19T12:44:37;33.00;39.80
24164;DHT22;12319;49.204;8.116;2022-08-19T12:47:04;32.80;39.90
24164;DHT22;12319;49.204;8.116;2022-08-19T12:49:31;32.60;40.20
24164;DHT22;12319;49.204;8.116;2022-08-19T12:52:03;32.70;40.00
24164;DHT22;12319;49.204;8.116;2022-08-19T12:54:29;32.60;40.30
24164;DHT22;12319;49.204;8.116;2022-08-19T12:56:56;32.40;40.00
24164;DHT22;12319;49.204;8.116;2022-08-19T12:59:22;32.20;40.20
24164;DHT22;12319;49.204;8.116;2022-08-19T13:01:47;32.20;40.00
24164;DHT22;12319;49.204;8.116;2022-08-19T13:04:13;32.10;40.30
24164;DHT22;12319;49.204;8.116;2022-08-19T13:06:39;32.00;40.20
24164;DHT22;12319;49.204;8.116;2022-08-19T13:09:05;31.90;40.00
24164;DHT22;12319;49.204;8.116;2022-08-19T13:11:30;31.80;40.50
24164;DHT22;12319;49.204;8.116;2022-08-19T13:14:00;31.70;40.50
24164;DHT22;12319;49.204;8.116;2022-08-19T13:16:27;31.60;40.60
24164;DHT22;12319;49.204;8.116;2022-08-19T13:18:54;31.50;40.60
24164;DHT22;12319;49.204;8.116;2022-08-19T13:21:23;31.50;40.60
24164;DHT22;12319;49.204;8.116;2022-08-19T13:23:49;31.80;40.60
24164;DHT22;12319;49.204;8.116;2022-08-19T13:26:15;32.40;40.70
24164;DHT22;12319;49.204;8.116;2022-08-19T13:28:42;33.00;40.50
24164;DHT22;12319;49.204;8.116;2022-08-19T13:31:28;33.70;40.20
24164;DHT22;12319;49.204;8.116;2022-08-19T13:34:13;34.40;39.70
24164;DHT22;12319;49.204;8.116;2022-08-19T13:36:40;35.00;38.90
24164;DHT22;12319;49.204;8.116;2022-08-19T13:39:07;35.20;38.40
24164;DHT22;12319;49.204;8.116;2022-08-19T13:41:34;35.40;38.20
24164;DHT22;12319;49.204;8.116;2022-08-19T13:44:00;35.70;38.00
24164;DHT22;12319;49.204;8.116;2022-08-19T13:46:27;35.90;37.80
24164;DHT22;12319;49.204;8.116;2022-08-19T13:48:55;36.10;37.40
24164;DHT22;12319;49.204;8.116;2022-08-19T13:51:21;35.90;36.90
24164;DHT22;12319;49.204;8.116;2022-08-19T13:53:47;35.50;37.10
24164;DHT22;12319;49.204;8.116;2022-08-19T13:56:17;35.00;37.30
24164;DHT22;12319;49.204;8.116;2022-08-19T13:58:44;34.60;37.10
24164;DHT22;12319;49.204;8.116;2022-08-19T14:01:10;34.20;37.60
24164;DHT22;12319;49.204;8.116;2022-08-19T14:03:36;33.70;37.60
24164;DHT22;12319;49.204;8.116;2022-08-19T14:06:02;33.30;38.00
24164;DHT22;12319;49.204;8.116;2022-08-19T14:08:28;32.90;38.00
24164;DHT22;12319;49.204;8.116;2022-08-19T14:10:57;32.60;38.00
24164;DHT22;12319;49.204;8.116;2022-08-19T14:13:23;32.20;38.50
24164;DHT22;12319;49.204;8.116;2022-08-19T14:15:49;32.00;38.60
24164;DHT22;12319;49.204;8.116;2022-08-19T14:18:16;31.70;39.20
24164;DHT22;12319;49.204;8.116;2022-08-19T14:20:43;31.40;39.10
24164;DHT22;12319;49.204;8.116;2022-08-19T14:23:09;31.20;39.00
24164;DHT22;12319;49.204;8.116;2022-08-19T14:25:35;31.10;39.10
24164;DHT22;12319;49.204;8.116;2022-08-19T14:28:01;30.90;39.30
24164;DHT22;12319;49.204;8.116;2022-08-19T14:30:29;30.80;39.70
24164;DHT22;12319;49.204;8.116;2022-08-19T14:32:56;30.70;40.10
24164;DHT22;12319;49.204;8.116;2022-08-19T14:35:24;30.60;40.00
24164;DHT22;12319;49.204;8.116;2022-08-19T14:37:51;30.50;39.80
24164;DHT22;12319;49.204;8.116;2022-08-19T14:40:23;30.50;40.00
24164;DHT22;12319;49.204;8.116;2022-08-19T14:42:55;30.40;40.00
24164;DHT22;12319;49.204;8.116;2022-08-19T14:45:25;30.30;40.10
24164;DHT22;12319;49.204;8.116;2022-08-19T14:47:51;30.20;40.20
24164;DHT22;12319;49.204;8.116;2022-08-19T14:50:17;30.20;40.30
24164;DHT22;12319;49.204;8.116;2022-08-19T14:52:43;30.30;40.60
24164;DHT22;12319;49.204;8.116;2022-08-19T14:55:09;30.30;40.50
24164;DHT22;12319;49.204;8.116;2022-08-19T14:57:35;30.50;41.10
24164;DHT22;12319;49.204;8.116;2022-08-19T15:00:00;30.30;40.50
24164;DHT22;12319;49.204;8.116;2022-08-19T15:02:26;30.40;40.30
24164;DHT22;12319;49.204;8.116;2022-08-19T15:04:51;30.60;40.40
24164;DHT22;12319;49.204;8.116;2022-08-19T15:07:17;30.50;40.30
24164;DHT22;12319;49.204;8.116;2022-08-19T15:09:43;30.60;40.30
24164;DHT22;12319;49.204;8.116;2022-08-19T15:12:08;30.60;40.20
24164;DHT22;12319;49.204;8.116;2022-08-19T15:14:36;30.70;40.50
24164;DHT22;12319;49.204;8.116;2022-08-19T15:17:04;30.70;40.10
24164;DHT22;12319;49.204;8.116;2022-08-19T15:19:31;30.80;40.10
24164;DHT22;12319;49.204;8.116;2022-08-19T15:21:58;30.90;39.90
24164;DHT22;12319;49.204;8.116;2022-08-19T15:24:24;30.90;40.30
24164;DHT22;12319;49.204;8.116;2022-08-19T15:26:51;30.90;40.20
24164;DHT22;12319;49.204;8.116;2022-08-19T15:29:17;31.00;40.30
24164;DHT22;12319;49.204;8.116;2022-08-19T15:31:42;31.10;40.00
24164;DHT22;12319;49.204;8.116;2022-08-19T15:34:08;31.00;39.50
24164;DHT22;12319;49.204;8.116;2022-08-19T15:36:34;31.00;39.50
24164;DHT22;12319;49.204;8.116;2022-08-19T15:39:01;31.00;39.20
24164;DHT22;12319;49.204;8.116;2022-08-19T15:41:30;31.10;39.40